Share

Samara, Russia

Kurumoch (UWWW) Elev 476 ft | 53.50 °N, 50.16 °E | Change Station

Current weather conditions updated 31 minutes ago

Clear
Clear
66 °F
Feels Like 66 °F
N
16
Wind Variable Wind from North
Gusts 22 mph
Sunrise 5:26 AM
Sunset 7:48 PM
Moon Waning Gibbous

Today is forecast to be nearly the same temperature as yesterday.

Pressure 30.18 in
Visibility -9999.0 miles
Clouds
Dew Point 30 °F
Humidity 26%
Rainfall 0.00 in
Snow Depth Not available.
UV Not available.
Pollen Not available.
Air Quality Not available.
Flu Activity Not available.
METAR UWWW 210930Z 36007G10MPS CAVOK 19/M01 Q1022 05CLRD60 33//99// NOSIG RMK QFE754/1005

More Conditions Fewer Conditions

Pressure 30.18 in
Visibility -9999.0 miles
Clouds
Dew Point 30 °F
Humidity 26%
Rainfall 0.00 in
Snow Depth Not available.
UV Not available.
Pollen Not available.
Air Quality Not available.
Flu Activity Not available.
METAR UWWW 210930Z 36007G10MPS CAVOK 19/M01 Q1022 05CLRD60 33//99// NOSIG RMK QFE754/1005

More Conditions Fewer Conditions

10-Day Weather Forecast

Almanac

Astronomy

Apr. 21, 2014 Rise Set
Actual Time 5:26 AM SAMT 7:48 PM SAMT
Civil Twilight 4:48 AM SAMT 8:27 PM SAMT
Nautical Twilight 3:59 AM SAMT 9:16 PM SAMT
Astronomical Twilight 3:02 AM SAMT 10:14 PM SAMT
Moon 1:14 AM SAMT 10:13 AM SAMT
Length of Visible Light 15h 39m
Length of Day
14h 22m
Tomorrow will be 3m 59s longer.
Waning Gibbous, 60% of the Moon is Illuminated
Today
Waning Gibbous
Apr 22
Last Quarter
Apr 29
New
May 6
First Quarter
May 14
Full

Yesterday's Extremes

Country Highs Country Lows

Community

  • Snowy Robin
    Snowy Robin
  • Sun Pillar and Geese
    Sun Pillar and Geese
  • Showers on the Way
    Showers on the Way
  • Easter Morning Fog
    Easter Morning Fog
  • Easter Dance
    Easter Dance

WunderPhotos

Upload Photos

1,703,585 photos uploaded!

WunderBlogs® & News

Nearby

Snow Depth

Not available.

Coastal Water Temperatures

Place Temperature
No Stations Reporting

Earthquake Activity

City Distance Mag. Time & Date
No recent earthquake activity has been reported nearby.
Minimum magnitude displayed is 2.5.

Nearby Weather Stations

There are no personal weather stations in this area.

What do you think?

We're not finished. Please let us know what you like, what you don't like, and what you are still missing.